Red Fish — WDF3926 — position and weather

sailwx.info

Track history (hours):
 
Tides and Currents Weather Stations Pressure Air Temp Water Temp Dewpoint Dewpoint Depression Visibility Wind Speed Wind Dir Waves Ship Positions

Red Fish

Owner: Higman Barge Lines, Inc 1980 Post Oak Blvd., Suite 1101 Houston, Texas 77056, Orange, TX. More information available from US FCC via Universal Licensing System and Coast Guard Vessel Documentation Center.

Last reported at 2016-Feb-11 08:32 UTC. Time now 2016-Feb-11 08:43 UTC.
Position N 29°50' W 093°59'.

Length 26 m; draft 2.9 m.

Type: Towing. MMSI: 367445690.

Date/timePositionNaut miles runAvg speedWind from/ knotsBaromVisibWave heightAir tempDewpointWater temp
2016-Feb-11 08:32N 29°50' W 093°59'0 0.0
2016-Feb-11 07:32N 29°50' W 093°59'0 0.0
2016-Feb-11 06:21N 29°50' W 093°59'0 0.0
2016-Feb-11 05:33N 29°50' W 093°59'0 0.0
2016-Feb-11 00:33N 29°50' W 093°59'  
2016-Feb-08 13:08N 29°60' W 093°55'0 0.0
2016-Feb-08 12:32N 29°60' W 093°55'0 0.0
2016-Feb-08 11:22N 29°60' W 093°55'0 0.0
2016-Feb-08 10:33N 29°60' W 093°55'0 0.0
2016-Feb-08 09:33N 29°60' W 093°55'0 0.0
2016-Feb-08 08:30N 29°60' W 093°55'0 0.0
2016-Feb-08 07:33N 29°60' W 093°55'0 0.0
2016-Feb-08 06:31N 29°60' W 093°55'0 0.0
2016-Feb-08 05:33N 29°60' W 093°55'0 0.0
2016-Feb-07 16:24N 29°60' W 093°55'0 0.0
2016-Feb-07 15:33N 29°60' W 093°55'0 0.0
2016-Feb-07 14:33N 29°60' W 093°55'0 0.0
2016-Feb-07 13:33N 29°60' W 093°55'0 0.0
2016-Feb-07 12:33N 29°60' W 093°55'0 0.0
2016-Feb-07 11:33N 29°60' W 093°55'0 0.0
2016-Feb-07 10:33N 29°60' W 093°55'0 0.0
2016-Feb-07 09:33N 29°60' W 093°55'0 0.0
2016-Feb-07 08:26N 29°60' W 093°55'0 0.0
2016-Feb-07 03:24N 29°60' W 093°55'0 0.0
2016-Feb-06 15:33N 29°60' W 093°55'0 0.0
2016-Feb-06 13:33N 29°60' W 093°55'0 0.0
2016-Feb-06 12:33N 29°60' W 093°55'0 0.0
2016-Feb-06 08:14N 29°60' W 093°55'0 0.0
2016-Feb-06 07:33N 29°60' W 093°55'0 0.0
2016-Feb-06 06:29N 29°60' W 093°55'0 0.0
2016-Feb-05 14:33N 29°60' W 093°55'0 0.0
2016-Feb-05 13:33N 29°60' W 093°55'1 0.0
2016-Feb-04 14:08N 29°59' W 093°56'2 3.1
2016-Feb-04 13:33N 29°59' W 093°54'1 1.3
2016-Feb-04 12:32N 29°59' W 093°52'4 4.1
2016-Feb-04 11:31N 29°55' W 093°53'59 3.8
2016-Feb-03 20:04N 29°22' W 094°50'3 0.1
2016-Feb-03 00:30N 29°22' W 094°53'0 0.4
2016-Feb-02 23:22N 29°22' W 094°53'2 0.2
2016-Feb-02 12:33N 29°22' W 094°51'2 0.2
2016-Feb-01 23:15N 29°21' W 094°49'0 0.0
2016-Feb-01 22:30N 29°21' W 094°49'0 0.0
2016-Feb-01 20:07N 29°21' W 094°49'  
Track history (hours):
 
Tides and Currents Weather Stations Pressure Air Temp Water Temp Dewpoint Dewpoint Depression Visibility Wind Speed Wind Dir Waves Ship Positions

Red Fish

Owner: Higman Barge Lines, Inc 1980 Post Oak Blvd., Suite 1101 Houston, Texas 77056, Orange, TX. More information available from US FCC via Universal Licensing System and Coast Guard Vessel Documentation Center.

Last reported at 2016-Feb-11 08:32 UTC. Time now 2016-Feb-11 08:43 UTC.
Position N 29°50' W 093°59'.

Length 26 m; draft 2.9 m.

Type: Towing. MMSI: 367445690.

Date/timePositionNaut miles runAvg speedWind from/ knotsBaromVisibWave heightAir tempDewpointWater temp
2016-Feb-11 08:32N 29°50' W 093°59'0 0.0
2016-Feb-11 07:32N 29°50' W 093°59'0 0.0
2016-Feb-11 06:21N 29°50' W 093°59'0 0.0
2016-Feb-11 05:33N 29°50' W 093°59'0 0.0
2016-Feb-11 00:33N 29°50' W 093°59'  
2016-Feb-08 13:08N 29°60' W 093°55'0 0.0
2016-Feb-08 12:32N 29°60' W 093°55'0 0.0
2016-Feb-08 11:22N 29°60' W 093°55'0 0.0
2016-Feb-08 10:33N 29°60' W 093°55'0 0.0
2016-Feb-08 09:33N 29°60' W 093°55'0 0.0
2016-Feb-08 08:30N 29°60' W 093°55'0 0.0
2016-Feb-08 07:33N 29°60' W 093°55'0 0.0
2016-Feb-08 06:31N 29°60' W 093°55'0 0.0
2016-Feb-08 05:33N 29°60' W 093°55'0 0.0
2016-Feb-07 16:24N 29°60' W 093°55'0 0.0
2016-Feb-07 15:33N 29°60' W 093°55'0 0.0
2016-Feb-07 14:33N 29°60' W 093°55'0 0.0
2016-Feb-07 13:33N 29°60' W 093°55'0 0.0
2016-Feb-07 12:33N 29°60' W 093°55'0 0.0
2016-Feb-07 11:33N 29°60' W 093°55'0 0.0
2016-Feb-07 10:33N 29°60' W 093°55'0 0.0
2016-Feb-07 09:33N 29°60' W 093°55'0 0.0
2016-Feb-07 08:26N 29°60' W 093°55'0 0.0
2016-Feb-07 03:24N 29°60' W 093°55'0 0.0
2016-Feb-06 15:33N 29°60' W 093°55'0 0.0
2016-Feb-06 13:33N 29°60' W 093°55'0 0.0
2016-Feb-06 12:33N 29°60' W 093°55'0 0.0
2016-Feb-06 08:14N 29°60' W 093°55'0 0.0
2016-Feb-06 07:33N 29°60' W 093°55'0 0.0
2016-Feb-06 06:29N 29°60' W 093°55'0 0.0
2016-Feb-05 14:33N 29°60' W 093°55'0 0.0
2016-Feb-05 13:33N 29°60' W 093°55'1 0.0
2016-Feb-04 14:08N 29°59' W 093°56'2 3.1
2016-Feb-04 13:33N 29°59' W 093°54'1 1.3
2016-Feb-04 12:32N 29°59' W 093°52'4 4.1
2016-Feb-04 11:31N 29°55' W 093°53'59 3.8
2016-Feb-03 20:04N 29°22' W 094°50'3 0.1
2016-Feb-03 00:30N 29°22' W 094°53'0 0.4
2016-Feb-02 23:22N 29°22' W 094°53'2 0.2
2016-Feb-02 12:33N 29°22' W 094°51'2 0.2
2016-Feb-01 23:15N 29°21' W 094°49'0 0.0
2016-Feb-01 22:30N 29°21' W 094°49'0 0.0
2016-Feb-01 20:07N 29°21' W 094°49'  

Dump ship's entire track history